Главная страница
METAR-TAF:

METAR-TAF

Аэропорты :

София, Болгария

широта: 42-39N, долгота: 023-23E, высота над уровнем моря: 586 м

Текущие метеонаблюдения

Эта сводка был подготовлена 33 минут назад, в 22:30 UTC
Ветер 3 Узел от юго-восточный, изменяющийся между восточно-юго-восточный и южный
Температура 15°C
Влажность 63%
Давление 1020 hPa
Видимость 10 км и более
Нет облачности ниже 1500 м, и нет кучево-дождевой облачности

METAR: LBSF 212230Z 14003KT 120V180 CAVOK 15/08 Q1020 NOSIG

Время: 02:03 (23:03 UTC)

Прогноз

Эта сводка был подготовлена 6 часа и 3 минут назад, в 17:00 UTC
Прогноз действительный с 21-го 18 UTC до 22-го 18 UTC
Ветер 10 Узел от восточно-юго-восточный
Видимость 10 км и более
Нет облачности ниже 1500 м, и нет кучево-дождевой облачности
изменения
С 21-го 20 UTC до 21-го 22 UTC
Ветер 4 Узел переменных направлений

TAF: LBSF 211700Z 2118/2218 12010KT CAVOK BECMG 2120/2122 VRB04KT

Метеонаблюдения и прогнозы для более 4000 аэропортов (сводки METAR и TAF).

Имеющиеся станции представлены на карте желтыми и красными точками.

Чтобы увидеть название станции, наведите на нее мышь.

Затем щелкните, чтобы увидеть метеонаблюдения и метеопрогнозы.

Управление картой: чтобы увеличить масштаб, щелкните зеленые кнопки с черным крестиком; чтобы уменьшить масштаб, щелкните зеленую кнопку с тире; для просмотра соседних карт щелкайте зеленые стрелки.


METAR-TAF: